Portada
METAR-TAF:

METAR-TAF

Aeropuertos :

Jartum, Sudán

Aeropuerto Internacional de Jartum

latitud: 15-36N, longitud: 032-33E, altitud: 382 m

Observación

El informe se hizo hace 1 hora y 29 minutos, a las 08:00 UTC
Viento 16 kt del norte-noreste
Temperatura 37°C
Humedad 7%
Presión 1012 hPa
Visibilidad: 2000 m
Ventisca alta de arena

METAR: HSSS 230800Z 03016KT 2000 BLSA 37/M05 Q1012 NOSIG

Hora: 12:29 (09:29 UTC)

Pronóstico

El informe se hizo hace 4 horas y 29 minutos, a las 05:00 UTC
Pronóstico válido del 23 a las 06 UTC al 24 a las 12 UTC
Viento 10 kt del norte con ráfagas de 20 kt
Visibilidad: 8000 m
Temporalmente
del 23 a las 06 UTC al 23 a las 09 UTC

TAF: HSSS 230500Z 2306/2412 36010G20KT 8000 TEMPO 2306/2309 4000BLDU

Observaciones y pronósticos meteorológicos de más de 4000 aeropuertos (mensajes METAR y TAF).

Los puntos amarillos y rojos representan las estaciones disponibles.

Ponga el ratón en el punto deseado para ver el nombre de la estación.

Haga clic para ver las observaciones y los pronósticos meteorológicos.

Para cambiar el mapa : haga clic en los botones verdes con una cruz de color negro para hacer un zoom, en el botón verde con un guión para alejar o en las flechas verdes para mapas adyacentes.


METAR-TAF: